sensor_id;sensor_type;location;lat;lon;timestamp;temperature;humidity
55795;DHT22;41716;51.910;4.430;2023-05-07T00:01:06;16.80;99.90
55795;DHT22;41716;51.910;4.430;2023-05-07T00:06:08;17.10;99.90
55795;DHT22;41716;51.910;4.430;2023-05-07T00:11:12;17.50;99.90
55795;DHT22;41716;51.910;4.430;2023-05-07T00:16:13;16.70;99.90
55795;DHT22;41716;51.910;4.430;2023-05-07T00:21:15;17.40;99.90
55795;DHT22;41716;51.910;4.430;2023-05-07T00:26:18;17.20;99.90
55795;DHT22;41716;51.910;4.430;2023-05-07T00:31:21;16.60;99.90
55795;DHT22;41716;51.910;4.430;2023-05-07T00:36:25;16.70;99.90
55795;DHT22;41716;51.910;4.430;2023-05-07T00:41:29;17.00;99.90
55795;DHT22;41716;51.910;4.430;2023-05-07T00:46:33;17.50;99.90
55795;DHT22;41716;51.910;4.430;2023-05-07T00:51:35;17.20;99.90
55795;DHT22;41716;51.910;4.430;2023-05-07T00:56:38;16.50;99.90
55795;DHT22;41716;51.910;4.430;2023-05-07T01:01:40;17.30;99.90
55795;DHT22;41716;51.910;4.430;2023-05-07T01:06:42;16.40;99.90
55795;DHT22;41716;51.910;4.430;2023-05-07T01:11:47;16.60;99.90
55795;DHT22;41716;51.910;4.430;2023-05-07T01:16:50;17.50;99.90
55795;DHT22;41716;51.910;4.430;2023-05-07T01:21:58;17.10;99.90
55795;DHT22;41716;51.910;4.430;2023-05-07T01:27:04;17.50;99.90
55795;DHT22;41716;51.910;4.430;2023-05-07T01:32:06;16.60;99.90
55795;DHT22;41716;51.910;4.430;2023-05-07T01:37:08;16.80;99.90
55795;DHT22;41716;51.910;4.430;2023-05-07T01:42:12;16.70;99.90
55795;DHT22;41716;51.910;4.430;2023-05-07T01:47:13;17.40;99.90
55795;DHT22;41716;51.910;4.430;2023-05-07T01:52:16;16.80;99.90
55795;DHT22;41716;51.910;4.430;2023-05-07T01:57:19;16.90;99.90
55795;DHT22;41716;51.910;4.430;2023-05-07T02:02:21;17.20;99.90
55795;DHT22;41716;51.910;4.430;2023-05-07T02:07:22;17.30;99.90
55795;DHT22;41716;51.910;4.430;2023-05-07T02:12:25;17.30;99.90
55795;DHT22;41716;51.910;4.430;2023-05-07T02:17:27;16.00;99.90
55795;DHT22;41716;51.910;4.430;2023-05-07T02:22:32;16.20;99.90
55795;DHT22;41716;51.910;4.430;2023-05-07T02:27:35;17.40;99.90
55795;DHT22;41716;51.910;4.430;2023-05-07T02:32:37;16.10;99.90
55795;DHT22;41716;51.910;4.430;2023-05-07T02:37:38;16.20;99.90
55795;DHT22;41716;51.910;4.430;2023-05-07T02:42:41;17.30;99.90
55795;DHT22;41716;51.910;4.430;2023-05-07T02:47:43;17.10;99.90
55795;DHT22;41716;51.910;4.430;2023-05-07T02:52:44;16.60;99.90
55795;DHT22;41716;51.910;4.430;2023-05-07T02:57:49;17.30;99.90
55795;DHT22;41716;51.910;4.430;2023-05-07T03:02:50;15.90;99.90
55795;DHT22;41716;51.910;4.430;2023-05-07T03:07:52;16.90;99.90
55795;DHT22;41716;51.910;4.430;2023-05-07T03:12:55;16.40;99.90
55795;DHT22;41716;51.910;4.430;2023-05-07T03:17:57;16.20;99.90
55795;DHT22;41716;51.910;4.430;2023-05-07T03:22:58;17.20;99.90
55795;DHT22;41716;51.910;4.430;2023-05-07T03:28:01;16.90;99.90
55795;DHT22;41716;51.910;4.430;2023-05-07T03:33:03;17.20;99.90
55795;DHT22;41716;51.910;4.430;2023-05-07T03:38:05;17.30;99.90
55795;DHT22;41716;51.910;4.430;2023-05-07T03:43:08;17.00;99.90
55795;DHT22;41716;51.910;4.430;2023-05-07T03:48:10;17.10;99.90
55795;DHT22;41716;51.910;4.430;2023-05-07T03:53:11;16.50;99.90
55795;DHT22;41716;51.910;4.430;2023-05-07T03:58:14;16.00;99.90
55795;DHT22;41716;51.910;4.430;2023-05-07T04:03:17;17.10;99.90
55795;DHT22;41716;51.910;4.430;2023-05-07T04:08:18;16.70;99.90
55795;DHT22;41716;51.910;4.430;2023-05-07T04:13:21;16.80;99.90
55795;DHT22;41716;51.910;4.430;2023-05-07T04:18:23;16.40;99.90
55795;DHT22;41716;51.910;4.430;2023-05-07T04:23:25;15.90;99.90
55795;DHT22;41716;51.910;4.430;2023-05-07T04:28:28;15.80;99.90
55795;DHT22;41716;51.910;4.430;2023-05-07T04:33:29;16.70;99.90
55795;DHT22;41716;51.910;4.430;2023-05-07T04:38:31;16.50;99.90
55795;DHT22;41716;51.910;4.430;2023-05-07T04:43:35;16.30;99.90
55795;DHT22;41716;51.910;4.430;2023-05-07T04:48:36;16.00;99.90
55795;DHT22;41716;51.910;4.430;2023-05-07T04:53:38;16.60;99.90
55795;DHT22;41716;51.910;4.430;2023-05-07T04:58:41;17.00;99.90
55795;DHT22;41716;51.910;4.430;2023-05-07T05:03:43;15.80;99.90
55795;DHT22;41716;51.910;4.430;2023-05-07T05:08:44;16.30;99.90
55795;DHT22;41716;51.910;4.430;2023-05-07T05:13:48;15.80;99.90
55795;DHT22;41716;51.910;4.430;2023-05-07T05:18:49;16.10;99.90
55795;DHT22;41716;51.910;4.430;2023-05-07T05:23:52;16.00;99.90
55795;DHT22;41716;51.910;4.430;2023-05-07T05:28:55;16.10;99.90
55795;DHT22;41716;51.910;4.430;2023-05-07T05:33:57;16.10;99.90
55795;DHT22;41716;51.910;4.430;2023-05-07T05:38:59;16.80;99.90
55795;DHT22;41716;51.910;4.430;2023-05-07T05:44:02;17.20;99.90
55795;DHT22;41716;51.910;4.430;2023-05-07T05:49:03;15.90;99.90
55795;DHT22;41716;51.910;4.430;2023-05-07T05:54:05;15.80;99.90
55795;DHT22;41716;51.910;4.430;2023-05-07T05:59:08;16.10;99.90
55795;DHT22;41716;51.910;4.430;2023-05-07T06:04:10;17.30;99.90
55795;DHT22;41716;51.910;4.430;2023-05-07T06:09:11;16.30;99.90
55795;DHT22;41716;51.910;4.430;2023-05-07T06:14:14;16.10;99.90
55795;DHT22;41716;51.910;4.430;2023-05-07T06:19:16;17.40;99.90
55795;DHT22;41716;51.910;4.430;2023-05-07T06:24:23;17.40;99.90
55795;DHT22;41716;51.910;4.430;2023-05-07T06:29:27;16.80;99.90
55795;DHT22;41716;51.910;4.430;2023-05-07T06:34:30;17.20;99.90
55795;DHT22;41716;51.910;4.430;2023-05-07T06:39:32;17.90;99.90
55795;DHT22;41716;51.910;4.430;2023-05-07T06:44:35;16.80;99.90
55795;DHT22;41716;51.910;4.430;2023-05-07T06:49:37;17.20;99.90
55795;DHT22;41716;51.910;4.430;2023-05-07T06:54:39;18.00;99.90
55795;DHT22;41716;51.910;4.430;2023-05-07T06:59:42;18.20;99.90
55795;DHT22;41716;51.910;4.430;2023-05-07T07:04:44;18.90;99.90
55795;DHT22;41716;51.910;4.430;2023-05-07T07:09:45;18.10;99.90
55795;DHT22;41716;51.910;4.430;2023-05-07T07:14:48;18.50;99.90
55795;DHT22;41716;51.910;4.430;2023-05-07T07:19:50;19.00;99.90
55795;DHT22;41716;51.910;4.430;2023-05-07T07:24:52;18.90;99.90
55795;DHT22;41716;51.910;4.430;2023-05-07T07:29:55;19.10;99.90
55795;DHT22;41716;51.910;4.430;2023-05-07T07:34:56;19.90;99.90
55795;DHT22;41716;51.910;4.430;2023-05-07T07:39:58;19.30;99.90
55795;DHT22;41716;51.910;4.430;2023-05-07T07:45:01;18.80;99.90
55795;DHT22;41716;51.910;4.430;2023-05-07T07:50:04;19.70;99.90
55795;DHT22;41716;51.910;4.430;2023-05-07T07:55:07;20.30;99.90
55795;DHT22;41716;51.910;4.430;2023-05-07T08:00:11;19.50;99.90
55795;DHT22;41716;51.910;4.430;2023-05-07T08:05:13;19.40;99.90
55795;DHT22;41716;51.910;4.430;2023-05-07T08:10:15;19.20;99.90
55795;DHT22;41716;51.910;4.430;2023-05-07T08:15:22;19.70;99.90
55795;DHT22;41716;51.910;4.430;2023-05-07T08:20:24;19.70;99.90
55795;DHT22;41716;51.910;4.430;2023-05-07T08:25:26;20.00;99.90
55795;DHT22;41716;51.910;4.430;2023-05-07T08:30:29;20.40;99.90
55795;DHT22;41716;51.910;4.430;2023-05-07T08:35:30;20.80;99.90
55795;DHT22;41716;51.910;4.430;2023-05-07T08:40:36;20.60;99.90
55795;DHT22;41716;51.910;4.430;2023-05-07T08:45:40;21.00;99.90
55795;DHT22;41716;51.910;4.430;2023-05-07T08:50:42;21.80;99.90
55795;DHT22;41716;51.910;4.430;2023-05-07T08:55:45;22.10;99.90
55795;DHT22;41716;51.910;4.430;2023-05-07T09:00:49;21.80;99.90
55795;DHT22;41716;51.910;4.430;2023-05-07T09:05:52;22.00;99.90
55795;DHT22;41716;51.910;4.430;2023-05-07T09:10:53;21.30;99.90
55795;DHT22;41716;51.910;4.430;2023-05-07T09:15:57;21.80;99.90
55795;DHT22;41716;51.910;4.430;2023-05-07T09:20:58;22.10;99.90
55795;DHT22;41716;51.910;4.430;2023-05-07T09:26:01;22.50;99.90
55795;DHT22;41716;51.910;4.430;2023-05-07T09:31:04;22.80;99.90
55795;DHT22;41716;51.910;4.430;2023-05-07T09:36:07;22.50;99.90
55795;DHT22;41716;51.910;4.430;2023-05-07T09:41:11;22.20;99.90
55795;DHT22;41716;51.910;4.430;2023-05-07T09:46:15;22.70;99.90
55795;DHT22;41716;51.910;4.430;2023-05-07T09:51:22;22.50;99.90
55795;DHT22;41716;51.910;4.430;2023-05-07T09:56:27;22.80;99.90
55795;DHT22;41716;51.910;4.430;2023-05-07T10:01:33;23.30;99.90
55795;DHT22;41716;51.910;4.430;2023-05-07T10:06:37;23.80;99.90
55795;DHT22;41716;51.910;4.430;2023-05-07T10:11:39;24.00;99.90
55795;DHT22;41716;51.910;4.430;2023-05-07T10:16:43;23.90;99.90
55795;DHT22;41716;51.910;4.430;2023-05-07T10:21:54;23.30;99.90
55795;DHT22;41716;51.910;4.430;2023-05-07T10:26:59;23.60;99.90
55795;DHT22;41716;51.910;4.430;2023-05-07T10:32:19;23.40;99.90
55795;DHT22;41716;51.910;4.430;2023-05-07T10:37:25;23.50;99.90
55795;DHT22;41716;51.910;4.430;2023-05-07T10:42:27;23.40;99.90
55795;DHT22;41716;51.910;4.430;2023-05-07T10:47:30;23.20;99.90
55795;DHT22;41716;51.910;4.430;2023-05-07T10:52:32;23.20;99.90
55795;DHT22;41716;51.910;4.430;2023-05-07T10:57:34;22.70;99.90
55795;DHT22;41716;51.910;4.430;2023-05-07T11:03:06;23.30;99.90
55795;DHT22;41716;51.910;4.430;2023-05-07T11:08:08;23.90;99.90
55795;DHT22;41716;51.910;4.430;2023-05-07T11:13:10;23.80;99.90
55795;DHT22;41716;51.910;4.430;2023-05-07T11:18:15;23.30;99.90
55795;DHT22;41716;51.910;4.430;2023-05-07T11:23:57;23.20;99.90
55795;DHT22;41716;51.910;4.430;2023-05-07T11:29:01;23.40;99.90
55795;DHT22;41716;51.910;4.430;2023-05-07T11:34:05;23.40;99.90
55795;DHT22;41716;51.910;4.430;2023-05-07T11:39:23;23.60;99.90
55795;DHT22;41716;51.910;4.430;2023-05-07T11:44:24;23.00;99.90
55795;DHT22;41716;51.910;4.430;2023-05-07T11:49:28;22.70;99.90
55795;DHT22;41716;51.910;4.430;2023-05-07T11:54:35;22.70;99.90
55795;DHT22;41716;51.910;4.430;2023-05-07T11:59:40;22.80;99.90
55795;DHT22;41716;51.910;4.430;2023-05-07T12:04:43;22.70;99.90
55795;DHT22;41716;51.910;4.430;2023-05-07T12:09:45;22.70;99.90
55795;DHT22;41716;51.910;4.430;2023-05-07T12:14:48;22.60;99.90
55795;DHT22;41716;51.910;4.430;2023-05-07T12:19:51;22.40;99.90
55795;DHT22;41716;51.910;4.430;2023-05-07T12:24:57;22.60;99.90
55795;DHT22;41716;51.910;4.430;2023-05-07T12:29:59;22.80;99.90
55795;DHT22;41716;51.910;4.430;2023-05-07T12:35:02;23.50;99.90
55795;DHT22;41716;51.910;4.430;2023-05-07T12:40:05;24.10;99.90
55795;DHT22;41716;51.910;4.430;2023-05-07T12:45:09;25.10;99.90
55795;DHT22;41716;51.910;4.430;2023-05-07T12:50:12;24.90;99.90
55795;DHT22;41716;51.910;4.430;2023-05-07T12:55:15;25.80;99.90
55795;DHT22;41716;51.910;4.430;2023-05-07T13:00:17;25.90;99.90
55795;DHT22;41716;51.910;4.430;2023-05-07T13:05:20;25.80;99.90
55795;DHT22;41716;51.910;4.430;2023-05-07T13:10:22;24.50;99.90
55795;DHT22;41716;51.910;4.430;2023-05-07T13:15:24;24.10;99.90
55795;DHT22;41716;51.910;4.430;2023-05-07T13:20:28;24.00;99.90
55795;DHT22;41716;51.910;4.430;2023-05-07T13:25:32;23.70;99.90
55795;DHT22;41716;51.910;4.430;2023-05-07T13:30:34;23.70;99.90
55795;DHT22;41716;51.910;4.430;2023-05-07T13:35:37;23.50;99.90
55795;DHT22;41716;51.910;4.430;2023-05-07T13:40:39;23.70;99.90
55795;DHT22;41716;51.910;4.430;2023-05-07T13:45:40;23.40;99.90
55795;DHT22;41716;51.910;4.430;2023-05-07T13:50:43;23.10;99.90
55795;DHT22;41716;51.910;4.430;2023-05-07T13:55:45;23.20;99.90
55795;DHT22;41716;51.910;4.430;2023-05-07T14:00:47;23.10;99.90
55795;DHT22;41716;51.910;4.430;2023-05-07T14:05:50;23.00;99.90
55795;DHT22;41716;51.910;4.430;2023-05-07T14:10:51;22.90;99.90
55795;DHT22;41716;51.910;4.430;2023-05-07T14:15:53;22.40;99.90
55795;DHT22;41716;51.910;4.430;2023-05-07T14:20:56;23.20;99.90
55795;DHT22;41716;51.910;4.430;2023-05-07T14:25:58;23.00;99.90
55795;DHT22;41716;51.910;4.430;2023-05-07T14:31:00;22.60;99.90
55795;DHT22;41716;51.910;4.430;2023-05-07T14:36:03;22.40;99.90
55795;DHT22;41716;51.910;4.430;2023-05-07T14:41:05;22.10;99.90
55795;DHT22;41716;51.910;4.430;2023-05-07T14:46:06;22.40;99.90
55795;DHT22;41716;51.910;4.430;2023-05-07T14:51:09;22.20;99.90
55795;DHT22;41716;51.910;4.430;2023-05-07T14:56:11;22.00;99.90
55795;DHT22;41716;51.910;4.430;2023-05-07T15:01:13;22.00;99.90
55795;DHT22;41716;51.910;4.430;2023-05-07T15:06:16;22.20;99.90
55795;DHT22;41716;51.910;4.430;2023-05-07T15:11:18;22.00;99.90
55795;DHT22;41716;51.910;4.430;2023-05-07T15:16:19;21.20;99.90
55795;DHT22;41716;51.910;4.430;2023-05-07T15:21:23;21.20;99.90
55795;DHT22;41716;51.910;4.430;2023-05-07T15:26:24;20.60;99.90
55795;DHT22;41716;51.910;4.430;2023-05-07T15:31:26;20.40;99.90
55795;DHT22;41716;51.910;4.430;2023-05-07T15:36:29;19.60;99.90
55795;DHT22;41716;51.910;4.430;2023-05-07T15:41:31;20.30;99.90
55795;DHT22;41716;51.910;4.430;2023-05-07T15:46:32;20.50;99.90
55795;DHT22;41716;51.910;4.430;2023-05-07T15:51:35;20.40;99.90
55795;DHT22;41716;51.910;4.430;2023-05-07T15:56:37;21.10;99.90
55795;DHT22;41716;51.910;4.430;2023-05-07T16:01:39;20.80;99.90
55795;DHT22;41716;51.910;4.430;2023-05-07T16:06:43;19.50;99.90
55795;DHT22;41716;51.910;4.430;2023-05-07T16:11:46;20.90;99.90
55795;DHT22;41716;51.910;4.430;2023-05-07T16:16:48;19.40;99.90
55795;DHT22;41716;51.910;4.430;2023-05-07T16:21:51;19.00;99.90
55795;DHT22;41716;51.910;4.430;2023-05-07T16:26:53;19.20;99.90
55795;DHT22;41716;51.910;4.430;2023-05-07T16:31:56;19.20;99.90
55795;DHT22;41716;51.910;4.430;2023-05-07T16:36:59;20.30;99.90
55795;DHT22;41716;51.910;4.430;2023-05-07T16:42:01;19.10;99.90
55795;DHT22;41716;51.910;4.430;2023-05-07T16:47:03;20.40;99.90
55795;DHT22;41716;51.910;4.430;2023-05-07T16:52:06;19.70;99.90
55795;DHT22;41716;51.910;4.430;2023-05-07T16:57:08;19.70;99.90
55795;DHT22;41716;51.910;4.430;2023-05-07T17:02:09;19.70;99.90
55795;DHT22;41716;51.910;4.430;2023-05-07T17:07:12;19.70;99.90
55795;DHT22;41716;51.910;4.430;2023-05-07T17:12:15;19.10;99.90
55795;DHT22;41716;51.910;4.430;2023-05-07T17:17:17;18.90;99.90
55795;DHT22;41716;51.910;4.430;2023-05-07T17:22:20;20.40;99.90
55795;DHT22;41716;51.910;4.430;2023-05-07T17:27:21;20.10;99.90
55795;DHT22;41716;51.910;4.430;2023-05-07T17:32:23;19.90;99.90
55795;DHT22;41716;51.910;4.430;2023-05-07T17:37:27;20.70;99.90
55795;DHT22;41716;51.910;4.430;2023-05-07T17:42:28;19.80;99.90
55795;DHT22;41716;51.910;4.430;2023-05-07T17:47:31;20.00;99.90
55795;DHT22;41716;51.910;4.430;2023-05-07T17:52:34;19.40;99.90
55795;DHT22;41716;51.910;4.430;2023-05-07T17:57:36;19.90;99.90
55795;DHT22;41716;51.910;4.430;2023-05-07T18:02:38;19.50;99.90
55795;DHT22;41716;51.910;4.430;2023-05-07T18:07:41;19.90;99.90
55795;DHT22;41716;51.910;4.430;2023-05-07T18:12:43;20.30;99.90
55795;DHT22;41716;51.910;4.430;2023-05-07T18:17:45;19.70;99.90
55795;DHT22;41716;51.910;4.430;2023-05-07T18:22:48;20.60;99.90
55795;DHT22;41716;51.910;4.430;2023-05-07T18:27:49;20.60;99.90
55795;DHT22;41716;51.910;4.430;2023-05-07T18:32:51;20.50;99.90
55795;DHT22;41716;51.910;4.430;2023-05-07T18:37:54;19.80;99.90
55795;DHT22;41716;51.910;4.430;2023-05-07T18:42:56;19.80;99.90
55795;DHT22;41716;51.910;4.430;2023-05-07T18:47:57;19.50;99.90
55795;DHT22;41716;51.910;4.430;2023-05-07T18:53:00;19.80;99.90
55795;DHT22;41716;51.910;4.430;2023-05-07T18:58:02;20.10;99.90
55795;DHT22;41716;51.910;4.430;2023-05-07T19:03:04;20.30;99.90
55795;DHT22;41716;51.910;4.430;2023-05-07T19:08:07;20.20;99.90
55795;DHT22;41716;51.910;4.430;2023-05-07T19:13:09;19.80;99.90
55795;DHT22;41716;51.910;4.430;2023-05-07T19:18:10;19.10;99.90
55795;DHT22;41716;51.910;4.430;2023-05-07T19:23:14;20.00;99.90
55795;DHT22;41716;51.910;4.430;2023-05-07T19:28:15;19.50;99.90
55795;DHT22;41716;51.910;4.430;2023-05-07T19:33:17;20.00;99.90
55795;DHT22;41716;51.910;4.430;2023-05-07T19:38:20;18.80;99.90
55795;DHT22;41716;51.910;4.430;2023-05-07T19:43:22;18.70;99.90
55795;DHT22;41716;51.910;4.430;2023-05-07T19:48:24;19.60;99.90
55795;DHT22;41716;51.910;4.430;2023-05-07T19:53:27;18.90;99.90
55795;DHT22;41716;51.910;4.430;2023-05-07T19:58:29;18.40;99.90
55795;DHT22;41716;51.910;4.430;2023-05-07T20:03:32;18.50;99.90
55795;DHT22;41716;51.910;4.430;2023-05-07T20:08:36;19.40;99.90
55795;DHT22;41716;51.910;4.430;2023-05-07T20:13:37;18.20;99.90
55795;DHT22;41716;51.910;4.430;2023-05-07T20:18:39;19.40;99.90
55795;DHT22;41716;51.910;4.430;2023-05-07T20:23:42;18.80;99.90
55795;DHT22;41716;51.910;4.430;2023-05-07T20:28:44;17.70;99.90
55795;DHT22;41716;51.910;4.430;2023-05-07T20:33:45;17.80;99.90
55795;DHT22;41716;51.910;4.430;2023-05-07T20:38:48;18.30;99.90
55795;DHT22;41716;51.910;4.430;2023-05-07T20:43:50;17.50;99.90
55795;DHT22;41716;51.910;4.430;2023-05-07T20:48:52;17.30;99.90
55795;DHT22;41716;51.910;4.430;2023-05-07T20:53:55;18.90;99.90
55795;DHT22;41716;51.910;4.430;2023-05-07T20:58:56;17.40;99.90
55795;DHT22;41716;51.910;4.430;2023-05-07T21:03:58;17.20;99.90
55795;DHT22;41716;51.910;4.430;2023-05-07T21:09:01;17.20;99.90
55795;DHT22;41716;51.910;4.430;2023-05-07T21:14:03;17.10;99.90
55795;DHT22;41716;51.910;4.430;2023-05-07T21:19:05;17.60;99.90
55795;DHT22;41716;51.910;4.430;2023-05-07T21:24:08;17.70;99.90
55795;DHT22;41716;51.910;4.430;2023-05-07T21:29:10;17.20;99.90
55795;DHT22;41716;51.910;4.430;2023-05-07T21:34:12;17.10;99.90
55795;DHT22;41716;51.910;4.430;2023-05-07T21:39:15;17.20;99.90
55795;DHT22;41716;51.910;4.430;2023-05-07T21:44:17;17.40;99.90
55795;DHT22;41716;51.910;4.430;2023-05-07T21:49:19;17.50;99.90
55795;DHT22;41716;51.910;4.430;2023-05-07T21:54:22;18.50;99.90
55795;DHT22;41716;51.910;4.430;2023-05-07T21:59:24;18.30;99.90
55795;DHT22;41716;51.910;4.430;2023-05-07T22:04:26;17.00;99.90
55795;DHT22;41716;51.910;4.430;2023-05-07T22:09:29;18.10;99.90
55795;DHT22;41716;51.910;4.430;2023-05-07T22:14:31;18.20;99.90
55795;DHT22;41716;51.910;4.430;2023-05-07T22:19:33;16.60;99.90
55795;DHT22;41716;51.910;4.430;2023-05-07T22:24:36;16.20;99.90
55795;DHT22;41716;51.910;4.430;2023-05-07T22:29:38;15.90;99.90
55795;DHT22;41716;51.910;4.430;2023-05-07T22:34:40;17.10;99.90
55795;DHT22;41716;51.910;4.430;2023-05-07T22:39:43;18.30;99.90
55795;DHT22;41716;51.910;4.430;2023-05-07T22:44:44;17.50;99.90
55795;DHT22;41716;51.910;4.430;2023-05-07T22:49:46;17.50;99.90
55795;DHT22;41716;51.910;4.430;2023-05-07T22:54:49;15.80;99.90
55795;DHT22;41716;51.910;4.430;2023-05-07T22:59:52;17.00;99.90
55795;DHT22;41716;51.910;4.430;2023-05-07T23:04:57;16.00;99.90
55795;DHT22;41716;51.910;4.430;2023-05-07T23:10:00;17.80;99.90
55795;DHT22;41716;51.910;4.430;2023-05-07T23:15:02;17.40;99.90
55795;DHT22;41716;51.910;4.430;2023-05-07T23:20:05;17.10;99.90
55795;DHT22;41716;51.910;4.430;2023-05-07T23:25:09;16.80;99.90
55795;DHT22;41716;51.910;4.430;2023-05-07T23:30:11;15.60;99.90
55795;DHT22;41716;51.910;4.430;2023-05-07T23:35:13;16.90;99.90
55795;DHT22;41716;51.910;4.430;2023-05-07T23:40:16;16.30;99.90
55795;DHT22;41716;51.910;4.430;2023-05-07T23:45:18;16.00;99.90
55795;DHT22;41716;51.910;4.430;2023-05-07T23:50:20;16.00;99.90
55795;DHT22;41716;51.910;4.430;2023-05-07T23:55:23;15.10;99.90
